Time;durP1;ratioP1;P1;durP2;ratioP2;P2;SDS_P1;SDS_P2;PMS_P1;PMS_P2;Temp;Humidity;BMP_temperature;BMP_pressure;BME280_temperature;BME280_humidity;BME280_pressure;Samples;Min_cycle;Max_cycle;Signal;HPM_P1;HPM_P2
2021/05/19 00:01:35;;;;;;;5.90;3.30;;;10.00;99.90;;;;;;5044011;28;20453;-71
2021/05/19 00:04:01;;;;;;;6.72;2.58;;;9.90;99.90;;;;;;5041592;28;20044;-70
2021/05/19 00:06:26;;;;;;;5.00;2.72;;;9.90;99.90;;;;;;5042640;28;20042;-67
2021/05/19 00:08:52;;;;;;;5.90;3.28;;;9.80;99.90;;;;;;5042021;28;20517;-68
2021/05/19 00:11:18;;;;;;;7.60;2.45;;;9.80;99.90;;;;;;5041719;28;20358;-68
2021/05/19 00:13:44;;;;;;;6.22;3.05;;;9.70;99.90;;;;;;5044834;28;20025;-68
2021/05/19 00:16:10;;;;;;;6.75;2.72;;;9.70;99.90;;;;;;5042167;28;20558;-68
2021/05/19 00:18:37;;;;;;;5.57;2.78;;;9.60;99.90;;;;;;5045557;28;20508;-68
2021/05/19 00:21:05;;;;;;;6.18;2.97;;;9.70;99.90;;;;;;5043990;28;20039;-68
2021/05/19 00:23:32;;;;;;;5.45;2.75;;;9.70;99.90;;;;;;5050519;28;20052;-69
2021/05/19 00:25:58;;;;;;;5.80;3.17;;;9.80;99.90;;;;;;5045031;28;20033;-68
2021/05/19 00:28:23;;;;;;;10.00;3.42;;;9.80;99.90;;;;;;5040951;28;20041;-68
2021/05/19 00:30:54;;;;;;;7.65;3.63;;;9.90;99.90;;;;;;5043259;28;20029;-68
2021/05/19 00:33:20;;;;;;;7.82;4.20;;;9.90;99.90;;;;;;5040750;28;20050;-69
2021/05/19 00:35:45;;;;;;;10.50;4.78;;;10.00;99.90;;;;;;5041555;28;20089;-68
2021/05/19 00:38:11;;;;;;;8.80;4.10;;;10.10;99.90;;;;;;5041063;28;20576;-69
2021/05/19 00:40:37;;;;;;;9.10;3.90;;;10.10;99.90;;;;;;5042220;28;20529;-69
2021/05/19 00:43:03;;;;;;;9.65;3.92;;;10.10;99.90;;;;;;5039973;28;20169;-69
2021/05/19 00:45:28;;;;;;;8.60;4.25;;;10.20;99.90;;;;;;5041767;28;20287;-68
2021/05/19 00:47:54;;;;;;;12.57;4.60;;;10.20;99.90;;;;;;5040836;28;20086;-68
2021/05/19 00:50:26;;;;;;;9.63;5.20;;;10.20;99.90;;;;;;5039914;28;20401;-68
2021/05/19 00:52:52;;;;;;;10.90;4.55;;;10.20;99.90;;;;;;5040951;28;20029;-69
2021/05/19 00:55:18;;;;;;;14.77;4.40;;;10.30;99.90;;;;;;5042264;28;20032;-69
2021/05/19 00:57:44;;;;;;;12.73;4.63;;;10.30;99.90;;;;;;5039236;28;20033;-69
2021/05/19 01:00:14;;;;;;;13.77;5.18;;;10.30;99.90;;;;;;5040996;28;20039;-69
2021/05/19 01:02:40;;;;;;;12.68;4.65;;;10.40;99.90;;;;;;5038513;28;20033;-69
2021/05/19 01:05:13;;;;;;;11.32;4.68;;;10.40;99.90;;;;;;5042232;28;20032;-69
2021/05/19 01:09:34;;;;;;;15.50;5.78;;;10.50;99.90;;;;;;5038162;28;20093;-68
2021/05/19 01:10:24;;;;;;;9.50;4.68;;;10.40;99.90;;;;;;5040795;28;20113;-68
2021/05/19 01:12:50;;;;;;;12.88;5.72;;;10.40;99.90;;;;;;5042029;28;20064;-68
2021/05/19 01:15:16;;;;;;;15.80;6.82;;;10.40;99.90;;;;;;5037644;28;20028;-68
2021/05/19 01:17:42;;;;;;;9.13;5.00;;;10.30;99.90;;;;;;5042546;28;20048;-68
2021/05/19 01:20:09;;;;;;;16.63;5.50;;;10.30;99.90;;;;;;5038275;28;20087;-69
2021/05/19 01:22:34;;;;;;;12.23;5.22;;;10.20;99.90;;;;;;5043274;28;20039;-68
2021/05/19 01:25:00;;;;;;;16.33;5.40;;;10.10;99.90;;;;;;5039015;28;20492;-68
2021/05/19 01:27:25;;;;;;;21.70;5.70;;;10.00;99.90;;;;;;5041507;28;20033;-68
2021/05/19 01:29:55;;;;;;;22.55;7.35;;;10.00;99.90;;;;;;5040584;28;20029;-69
2021/05/19 01:32:21;;;;;;;17.30;6.15;;;9.90;99.90;;;;;;5039323;28;20041;-68
2021/05/19 01:34:47;;;;;;;12.43;5.65;;;9.80;99.90;;;;;;5042240;28;20033;-68
2021/05/19 01:37:14;;;;;;;19.17;6.47;;;9.80;99.90;;;;;;5038506;28;20025;-67
2021/05/19 01:39:41;;;;;;;13.25;6.07;;;9.70;99.90;;;;;;5042583;28;20032;-68
2021/05/19 01:42:08;;;;;;;16.70;5.30;;;9.70;99.90;;;;;;5037934;28;20037;-68
2021/05/19 01:44:34;;;;;;;16.52;5.57;;;9.70;99.90;;;;;;5043075;28;20106;-67
2021/05/19 01:47:02;;;;;;;14.90;5.35;;;9.70;99.90;;;;;;5040679;28;20037;-68
2021/05/19 01:49:30;;;;;;;24.77;6.15;;;9.80;99.90;;;;;;5041685;28;20032;-68
2021/05/19 01:52:00;;;;;;;22.10;6.00;;;9.70;99.90;;;;;;5039432;28;20036;-67
2021/05/19 01:54:28;;;;;;;18.53;5.97;;;9.70;99.90;;;;;;5040774;28;20422;-67
2021/05/19 01:56:54;;;;;;;23.80;5.45;;;9.70;99.90;;;;;;5039475;28;20064;-68
2021/05/19 01:59:21;;;;;;;16.77;6.53;;;9.60;99.90;;;;;;5037939;28;20049;-67
2021/05/19 02:01:46;;;;;;;15.93;5.55;;;9.60;99.90;;;;;;5041053;28;20128;-67
2021/05/19 02:04:15;;;;;;;16.70;5.72;;;9.60;99.90;;;;;;5040291;28;20041;-69
2021/05/19 02:06:55;;;;;;;24.50;6.50;;;9.60;99.90;;;;;;5040972;28;20029;-69
2021/05/19 02:09:21;;;;;;;21.50;6.45;;;9.60;99.90;;;;;;5039754;28;20498;-68
2021/05/19 02:11:48;;;;;;;17.92;5.78;;;9.50;99.90;;;;;;5042090;28;20082;-68
2021/05/19 02:14:14;;;;;;;22.45;5.72;;;9.50;99.90;;;;;;5039722;28;20061;-68
2021/05/19 02:16:40;;;;;;;43.20;7.47;;;9.50;99.90;;;;;;5040732;28;20033;-68
2021/05/19 02:19:09;;;;;;;17.95;6.15;;;9.50;99.90;;;;;;5039081;28;20332;-69
2021/05/19 02:21:42;;;;;;;18.75;6.65;;;9.60;99.90;;;;;;5041826;28;20116;-67
2021/05/19 02:24:11;;;;;;;16.20;7.05;;;9.60;99.90;;;;;;5042435;28;20036;-68
2021/05/19 02:26:37;;;;;;;17.15;5.97;;;9.70;99.90;;;;;;5046049;28;20040;-68
2021/05/19 02:29:05;;;;;;;14.80;6.07;;;9.70;99.90;;;;;;5044457;28;20498;-67
2021/05/19 02:31:31;;;;;;;16.20;6.18;;;9.80;99.90;;;;;;5046393;28;20052;-68
2021/05/19 02:33:57;;;;;;;15.55;6.38;;;9.80;99.90;;;;;;5042992;28;20643;-68
2021/05/19 02:36:23;;;;;;;21.60;6.40;;;9.80;99.90;;;;;;5043776;28;20132;-69
2021/05/19 02:38:48;;;;;;;19.92;6.18;;;9.90;99.90;;;;;;5047224;28;20033;-67
2021/05/19 02:41:14;;;;;;;14.40;6.97;;;9.80;99.90;;;;;;5042254;28;20441;-68
2021/05/19 02:43:40;;;;;;;18.80;6.80;;;9.80;99.90;;;;;;5040860;28;20037;-68
2021/05/19 02:46:05;;;;;;;19.00;7.05;;;9.90;99.90;;;;;;5046017;28;20036;-70
2021/05/19 02:48:31;;;;;;;13.43;6.40;;;9.90;99.90;;;;;;5048344;28;20043;-68
2021/05/19 02:50:57;;;;;;;16.42;6.93;;;9.90;99.90;;;;;;5041777;28;20494;-68
2021/05/19 02:53:22;;;;;;;14.88;7.28;;;10.00;99.90;;;;;;5044525;28;20037;-68
2021/05/19 02:55:48;;;;;;;14.57;6.90;;;9.90;99.90;;;;;;5043303;28;20459;-69
2021/05/19 02:58:14;;;;;;;19.70;7.45;;;9.90;99.90;;;;;;5041741;28;20034;-68
2021/05/19 03:00:39;;;;;;;20.30;7.15;;;9.90;99.90;;;;;;5043314;28;20037;-68
2021/05/19 03:03:06;;;;;;;17.45;7.40;;;9.90;99.90;;;;;;5044959;28;20060;-69
2021/05/19 03:05:31;;;;;;;17.67;8.35;;;9.80;99.90;;;;;;5053291;28;20310;-68
2021/05/19 03:07:57;;;;;;;21.20;7.75;;;9.80;99.90;;;;;;5049600;28;20025;-68
2021/05/19 03:10:23;;;;;;;16.70;8.15;;;9.80;99.90;;;;;;5044139;28;20098;-69
2021/05/19 03:12:51;;;;;;;17.95;7.80;;;9.70;99.90;;;;;;5044375;28;20065;-68
2021/05/19 03:15:18;;;;;;;17.45;8.30;;;9.70;99.90;;;;;;5044740;28;20033;-68
2021/05/19 03:17:44;;;;;;;15.75;8.38;;;9.70;99.90;;;;;;5041085;28;22868;-69
2021/05/19 03:20:10;;;;;;;16.98;8.00;;;9.70;99.90;;;;;;5045928;28;20493;-68
2021/05/19 03:22:36;;;;;;;20.27;8.63;;;9.70;99.90;;;;;;5045073;28;20160;-67
2021/05/19 03:25:03;;;;;;;16.92;7.90;;;9.80;99.90;;;;;;5050039;28;20536;-67
2021/05/19 03:27:29;;;;;;;19.10;8.20;;;9.80;99.90;;;;;;5051019;28;20025;-68
2021/05/19 03:29:54;;;;;;;20.80;8.05;;;9.80;99.90;;;;;;5043686;28;20056;-68
2021/05/19 03:32:20;;;;;;;18.83;8.23;;;9.80;99.90;;;;;;5045047;28;20606;-67
2021/05/19 03:34:46;;;;;;;21.20;8.02;;;9.80;99.90;;;;;;5042785;28;20070;-68
2021/05/19 03:37:11;;;;;;;16.08;7.18;;;9.80;99.90;;;;;;5040468;28;20102;-67
2021/05/19 03:39:37;;;;;;;15.38;7.50;;;9.90;99.90;;;;;;5041778;28;20498;-67
2021/05/19 03:42:03;;;;;;;20.63;7.88;;;9.90;99.90;;;;;;5041758;28;20080;-68
2021/05/19 03:44:28;;;;;;;18.27;8.02;;;9.90;99.90;;;;;;5041017;28;20030;-68
2021/05/19 03:46:54;;;;;;;14.70;7.53;;;9.90;99.90;;;;;;5043488;28;20550;-67
2021/05/19 03:49:20;;;;;;;16.83;8.20;;;9.90;99.90;;;;;;5043185;28;20614;-68
2021/05/19 03:51:46;;;;;;;17.95;7.63;;;9.90;99.90;;;;;;5042603;28;20037;-69
2021/05/19 03:54:11;;;;;;;16.92;7.82;;;9.80;99.90;;;;;;5042286;28;20037;-68
2021/05/19 03:56:37;;;;;;;17.20;7.65;;;9.80;99.90;;;;;;5039943;28;20044;-68
2021/05/19 03:59:04;;;;;;;16.55;7.85;;;9.70;99.90;;;;;;5042411;28;20029;-68
2021/05/19 04:01:29;;;;;;;14.40;7.55;;;9.70;99.90;;;;;;5040566;28;20040;-67
2021/05/19 04:03:55;;;;;;;20.70;8.85;;;9.70;99.90;;;;;;5043531;28;20037;-69
2021/05/19 04:06:23;;;;;;;16.33;7.45;;;9.50;99.90;;;;;;5044154;28;20030;-70
2021/05/19 04:08:49;;;;;;;18.52;7.78;;;9.50;99.90;;;;;;5042136;28;20390;-68
2021/05/19 04:11:15;;;;;;;18.90;7.43;;;9.40;99.90;;;;;;5042890;28;20029;-70
2021/05/19 04:13:40;;;;;;;18.13;7.68;;;9.50;99.90;;;;;;5040846;28;20607;-69
2021/05/19 04:16:06;;;;;;;16.08;7.55;;;9.40;99.90;;;;;;5041414;28;20038;-68
2021/05/19 04:18:32;;;;;;;16.83;7.93;;;9.30;99.90;;;;;;5043334;28;20045;-68
2021/05/19 04:20:58;;;;;;;17.52;7.57;;;9.30;99.90;;;;;;5039773;28;20508;-68
2021/05/19 04:23:26;;;;;;;17.40;7.43;;;9.30;99.90;;;;;;5040755;28;20093;-68
2021/05/19 04:25:54;;;;;;;21.48;7.75;;;9.20;99.90;;;;;;5038304;28;20064;-68
2021/05/19 04:28:20;;;;;;;17.42;8.07;;;9.30;99.90;;;;;;5042918;28;20061;-68
2021/05/19 04:30:47;;;;;;;17.02;6.75;;;9.30;99.90;;;;;;5043901;28;20071;-69
2021/05/19 04:33:14;;;;;;;16.45;7.65;;;9.20;99.90;;;;;;5042763;28;20041;-68
2021/05/19 04:35:40;;;;;;;13.48;7.20;;;9.20;99.90;;;;;;5040743;28;20033;-69
2021/05/19 04:38:06;;;;;;;15.57;8.00;;;9.40;99.90;;;;;;5039179;28;20037;-68
2021/05/19 04:40:31;;;;;;;11.05;6.30;;;9.30;99.90;;;;;;5042822;28;20375;-68
2021/05/19 04:42:57;;;;;;;18.98;6.80;;;9.40;99.90;;;;;;5036394;28;20032;-68
2021/05/19 04:45:23;;;;;;;10.25;5.88;;;9.40;99.90;;;;;;5038318;28;20082;-68
2021/05/19 04:47:48;;;;;;;18.92;7.03;;;9.50;99.90;;;;;;5040182;28;20032;-69
2021/05/19 04:50:14;;;;;;;13.48;6.93;;;9.50;99.90;;;;;;5041435;28;20060;-69
2021/05/19 04:52:40;;;;;;;18.98;6.90;;;9.60;99.90;;;;;;5039719;28;20034;-69
2021/05/19 04:55:07;;;;;;;10.20;5.82;;;9.60;99.90;;;;;;5036861;28;20030;-68
2021/05/19 04:57:33;;;;;;;14.18;5.45;;;9.70;99.90;;;;;;5039671;28;20128;-68
2021/05/19 04:59:59;;;;;;;16.70;5.95;;;9.70;99.90;;;;;;5035348;28;20040;-69
2021/05/19 05:02:25;;;;;;;13.13;5.93;;;9.80;99.90;;;;;;5039091;28;20045;-67
2021/05/19 05:04:52;;;;;;;15.30;6.45;;;9.80;99.90;;;;;;5035142;28;20040;-70
2021/05/19 05:07:18;;;;;;;12.63;6.22;;;9.90;99.90;;;;;;5042897;28;20423;-68
2021/05/19 05:09:47;;;;;;;13.15;5.47;;;10.00;99.90;;;;;;5037170;28;20028;-69
2021/05/19 05:12:14;;;;;;;13.23;5.68;;;10.10;99.90;;;;;;5037810;28;20036;-67
2021/05/19 05:14:40;;;;;;;17.70;5.03;;;10.40;99.90;;;;;;5043083;28;20025;-68
2021/05/19 05:17:06;;;;;;;11.32;4.80;;;10.60;99.90;;;;;;5042158;28;20083;-70
2021/05/19 05:19:31;;;;;;;13.60;4.90;;;10.80;99.90;;;;;;5041544;28;20329;-69
2021/05/19 05:21:57;;;;;;;13.65;4.45;;;11.10;99.90;;;;;;5045096;28;20360;-69
2021/05/19 05:24:23;;;;;;;10.93;5.10;;;11.30;99.90;;;;;;5042166;28;20112;-68
2021/05/19 05:26:48;;;;;;;14.13;4.53;;;11.70;99.90;;;;;;5045248;28;20056;-69
2021/05/19 05:29:14;;;;;;;8.70;4.20;;;11.90;99.90;;;;;;5053099;28;20033;-68
2021/05/19 05:31:39;;;;;;;9.98;4.60;;;12.00;99.90;;;;;;5053361;28;20033;-69
2021/05/19 05:34:05;;;;;;;11.32;3.95;;;12.10;99.90;;;;;;5045338;28;20071;-68
2021/05/19 05:36:31;;;;;;;9.02;3.95;;;12.20;99.90;;;;;;5045875;28;20033;-70
2021/05/19 05:38:56;;;;;;;13.82;5.20;;;12.20;99.90;;;;;;5044366;28;20025;-68
2021/05/19 05:41:22;;;;;;;12.05;4.05;;;12.20;99.90;;;;;;5041509;28;20529;-70
2021/05/19 05:43:48;;;;;;;9.45;4.45;;;12.10;99.90;;;;;;5043104;28;20127;-69
2021/05/19 05:46:13;;;;;;;13.43;4.13;;;12.00;99.90;;;;;;5047532;28;20029;-69
2021/05/19 05:48:40;;;;;;;12.18;4.30;;;12.00;99.90;;;;;;5045280;28;20041;-69
2021/05/19 05:51:06;;;;;;;14.15;5.13;;;11.90;99.90;;;;;;5046455;28;20030;-69
2021/05/19 05:53:32;;;;;;;9.88;4.85;;;11.90;99.90;;;;;;5046095;28;20036;-69
2021/05/19 05:55:57;;;;;;;12.07;4.47;;;11.90;99.90;;;;;;5038573;28;20040;-69
2021/05/19 05:58:23;;;;;;;17.92;5.28;;;11.90;99.90;;;;;;5039082;28;20045;-69
2021/05/19 06:00:49;;;;;;;15.80;5.35;;;11.90;99.90;;;;;;5042512;28;20040;-68
2021/05/19 06:03:14;;;;;;;18.50;4.90;;;12.20;99.90;;;;;;5041699;28;20052;-69
2021/05/19 06:05:41;;;;;;;14.82;5.00;;;12.10;99.90;;;;;;5043082;28;20429;-70
2021/05/19 06:08:07;;;;;;;14.07;5.18;;;12.20;99.90;;;;;;5046074;28;20044;-69
2021/05/19 06:10:32;;;;;;;13.48;5.45;;;12.30;99.90;;;;;;5043054;28;20041;-70
2021/05/19 06:12:58;;;;;;;19.52;5.88;;;12.40;99.90;;;;;;5044384;28;20120;-69
2021/05/19 06:15:24;;;;;;;12.93;5.20;;;12.50;99.90;;;;;;5044560;28;20064;-68
2021/05/19 06:17:50;;;;;;;18.23;6.97;;;12.60;99.90;;;;;;5041708;28;20043;-68
2021/05/19 06:20:16;;;;;;;17.48;6.25;;;12.70;99.90;;;;;;5039762;28;20040;-69
2021/05/19 06:22:41;;;;;;;16.17;6.25;;;12.60;99.90;;;;;;5040253;28;20082;-69
2021/05/19 06:25:07;;;;;;;18.40;6.38;;;12.50;99.90;;;;;;5045196;28;20527;-68
2021/05/19 06:27:33;;;;;;;16.40;7.07;;;12.30;99.90;;;;;;5039389;28;20042;-70
2021/05/19 06:29:59;;;;;;;20.05;7.22;;;12.20;99.90;;;;;;5044986;28;20023;-69
2021/05/19 06:32:24;;;;;;;24.00;7.30;;;12.00;99.90;;;;;;5040151;28;20053;-68
2021/05/19 06:34:50;;;;;;;22.00;8.23;;;11.90;99.90;;;;;;5044358;28;20470;-69
2021/05/19 06:37:16;;;;;;;17.55;7.70;;;11.80;99.90;;;;;;5038515;28;20034;-70
2021/05/19 06:39:41;;;;;;;22.80;8.45;;;11.80;99.90;;;;;;5043197;28;20029;-69
2021/05/19 06:42:07;;;;;;;23.23;8.15;;;11.80;99.90;;;;;;5041926;28;20628;-68
2021/05/19 06:44:33;;;;;;;22.27;8.35;;;11.90;99.90;;;;;;5043906;28;20520;-69
2021/05/19 06:46:58;;;;;;;22.00;9.00;;;11.90;99.90;;;;;;5039664;28;20025;-69
2021/05/19 06:49:24;;;;;;;25.90;8.93;;;12.00;99.90;;;;;;5041589;28;20094;-68
2021/05/19 06:51:50;;;;;;;22.85;8.90;;;12.00;99.90;;;;;;5046127;28;20041;-69
2021/05/19 06:54:16;;;;;;;21.42;9.45;;;12.10;99.90;;;;;;5040556;28;20037;-69
2021/05/19 06:56:44;;;;;;;18.75;8.35;;;12.10;99.90;;;;;;5042291;28;20049;-69
2021/05/19 06:59:11;;;;;;;23.30;8.93;;;12.10;99.90;;;;;;5038924;28;20057;-69
2021/05/19 07:01:37;;;;;;;22.05;8.27;;;12.40;99.90;;;;;;5042540;28;20055;-70
2021/05/19 07:04:03;;;;;;;23.48;8.48;;;12.70;99.90;;;;;;5043123;28;20131;-69
2021/05/19 07:06:29;;;;;;;21.00;8.93;;;12.90;99.90;;;;;;5041857;28;20071;-69
2021/05/19 07:08:54;;;;;;;19.23;7.70;;;13.20;99.90;;;;;;5044303;28;20061;-69
2021/05/19 07:11:20;;;;;;;17.90;7.65;;;13.50;99.90;;;;;;5045702;28;20065;-68
2021/05/19 07:13:45;;;;;;;15.82;7.68;;;13.70;99.90;;;;;;5049991;28;20047;-69
2021/05/19 07:16:13;;;;;;;16.67;7.30;;;13.80;99.90;;;;;;5048591;28;20072;-68
2021/05/19 07:18:38;;;;;;;19.80;7.30;;;13.80;99.90;;;;;;5046351;28;20044;-71
2021/05/19 07:21:04;;;;;;;26.00;7.05;;;13.90;99.90;;;;;;5052483;28;20113;-69
2021/05/19 07:23:30;;;;;;;22.35;8.20;;;13.80;99.90;;;;;;5047552;28;20065;-71
2021/05/19 07:25:55;;;;;;;18.95;7.82;;;13.80;99.90;;;;;;5052591;28;20033;-70
2021/05/19 07:28:21;;;;;;;25.63;8.02;;;13.80;99.90;;;;;;5049348;28;20541;-71
2021/05/19 07:30:48;;;;;;;16.65;6.93;;;13.80;99.90;;;;;;5051140;28;20061;-69
2021/05/19 07:33:15;;;;;;;21.92;6.63;;;13.70;99.90;;;;;;5050146;28;20151;-69
2021/05/19 07:35:41;;;;;;;15.65;6.53;;;13.70;99.90;;;;;;5047853;28;20258;-69
2021/05/19 07:38:08;;;;;;;15.20;6.82;;;13.80;99.90;;;;;;5048724;28;20052;-70
2021/05/19 07:40:34;;;;;;;16.85;6.93;;;13.80;99.90;;;;;;5046053;28;20104;-70
2021/05/19 07:42:59;;;;;;;23.13;7.47;;;13.90;99.90;;;;;;5046126;28;20060;-69
2021/05/19 07:45:25;;;;;;;18.88;6.82;;;13.90;99.90;;;;;;5047613;28;20044;-69
2021/05/19 07:47:51;;;;;;;16.05;6.30;;;13.90;99.90;;;;;;5045556;28;20039;-69
2021/05/19 07:50:16;;;;;;;20.38;7.97;;;13.90;99.90;;;;;;5050144;28;20048;-70
2021/05/19 07:52:42;;;;;;;15.63;6.45;;;14.10;99.90;;;;;;5046150;28;20446;-69
2021/05/19 07:55:18;;;;;;;12.98;6.50;;;14.60;99.90;;;;;;5049238;28;20046;-69
2021/05/19 07:58:47;;;;;;;17.15;5.63;;;14.80;99.90;;;;;;5045441;28;20030;-70
2021/05/19 08:03:22;;;;;;;11.45;5.28;;;15.30;99.90;;;;;;5047801;28;20117;-71
2021/05/19 08:05:48;;;;;;;16.85;5.28;;;15.60;99.90;;;;;;5050042;28;20376;-70
2021/05/19 08:08:14;;;;;;;13.52;5.32;;;15.60;99.90;;;;;;5048842;28;20026;-70
2021/05/19 08:10:41;;;;;;;14.63;4.85;;;15.70;99.90;;;;;;5045488;28;20033;-71
2021/05/19 08:13:09;;;;;;;12.98;5.38;;;15.70;99.90;;;;;;5050792;28;20059;-70
2021/05/19 08:15:35;;;;;;;13.13;5.20;;;15.60;99.90;;;;;;5050409;28;20034;-68
2021/05/19 08:18:04;;;;;;;16.63;5.57;;;15.40;99.90;;;;;;5044781;28;20051;-69
2021/05/19 08:20:32;;;;;;;14.27;5.32;;;15.20;99.90;;;;;;5047945;28;20036;-67
2021/05/19 08:22:58;;;;;;;16.50;5.50;;;15.10;99.90;;;;;;5048612;28;20025;-67
2021/05/19 08:25:25;;;;;;;15.73;5.35;;;15.00;99.90;;;;;;5044736;28;20056;-70
2021/05/19 08:27:51;;;;;;;16.05;5.90;;;15.20;99.90;;;;;;5049531;28;20033;-70
2021/05/19 08:30:16;;;;;;;11.45;5.63;;;15.30;99.90;;;;;;5044647;28;20057;-68
2021/05/19 08:32:42;;;;;;;10.52;5.00;;;15.40;99.90;;;;;;5045615;28;20775;-68
2021/05/19 08:35:09;;;;;;;12.05;5.38;;;15.30;99.90;;;;;;5041686;28;20084;-68
2021/05/19 08:37:35;;;;;;;11.98;5.82;;;15.10;99.90;;;;;;5045344;28;20034;-68
2021/05/19 08:40:01;;;;;;;12.23;5.15;;;14.90;99.90;;;;;;5044497;28;20025;-68
2021/05/19 08:42:27;;;;;;;11.68;5.72;;;14.60;99.90;;;;;;5046013;28;20785;-71
2021/05/19 08:44:54;;;;;;;18.25;6.47;;;14.40;99.90;;;;;;5046117;28;20055;-68
2021/05/19 08:47:25;;;;;;;14.52;6.43;;;14.10;99.90;;;;;;5047257;28;20030;-69
2021/05/19 08:49:51;;;;;;;17.80;6.03;;;13.80;99.90;;;;;;5045618;28;20194;-70
2021/05/19 08:52:20;;;;;;;20.42;7.72;;;13.40;99.90;;;;;;5046857;28;20037;-68
2021/05/19 08:54:49;;;;;;;23.58;7.97;;;13.10;99.90;;;;;;5045386;28;20087;-69
2021/05/19 08:57:15;;;;;;;17.88;8.70;;;12.80;99.90;;;;;;5043464;28;20033;-69
2021/05/19 08:59:40;;;;;;;21.00;8.68;;;12.70;99.90;;;;;;5040306;28;20029;-69
2021/05/19 09:02:14;;;;;;;16.45;7.95;;;12.60;99.90;;;;;;5042256;28;20045;-70
2021/05/19 09:04:41;;;;;;;28.10;8.30;;;12.40;99.90;;;;;;5043242;28;20055;-70
2021/05/19 09:07:09;;;;;;;19.90;9.23;;;12.30;99.90;;;;;;5044734;28;20072;-69
2021/05/19 09:09:36;;;;;;;17.75;7.78;;;12.30;99.90;;;;;;5042416;28;20033;-69
2021/05/19 09:12:08;;;;;;;10.13;5.35;;;12.30;99.90;;;;;;5043615;28;20035;-69
2021/05/19 09:14:36;;;;;;;12.93;4.20;;;12.20;99.90;;;;;;5046818;28;20866;-68
2021/05/19 09:17:35;;;;;;;6.28;3.03;;;12.00;99.90;;;;;;5043876;28;20120;-69
2021/05/19 09:20:08;;;;;;;1.85;1.20;;;11.80;99.90;;;;;;5031905;28;20041;-69
2021/05/19 09:22:36;;;;;;;2.67;1.00;;;11.60;99.90;;;;;;5043126;28;20041;-70
2021/05/19 09:25:19;;;;;;;2.42;1.10;;;11.50;99.90;;;;;;5040267;28;20501;-69
2021/05/19 09:27:47;;;;;;;1.42;0.55;;;11.30;99.90;;;;;;5041724;28;20067;-69
2021/05/19 09:30:13;;;;;;;2.17;0.88;;;11.10;99.90;;;;;;5035982;28;20042;-70
2021/05/19 09:32:42;;;;;;;1.70;0.52;;;11.00;99.90;;;;;;5041394;28;20033;-70
2021/05/19 09:35:09;;;;;;;1.17;0.50;;;10.90;99.90;;;;;;5043492;28;20032;-70
2021/05/19 09:37:35;;;;;;;3.70;1.50;;;10.90;99.90;;;;;;5043419;28;20029;-70
2021/05/19 09:40:11;;;;;;;2.05;0.63;;;10.80;99.90;;;;;;5045363;28;20486;-69
2021/05/19 09:42:36;;;;;;;2.22;1.00;;;10.70;99.90;;;;;;5039221;28;20038;-70
2021/05/19 09:45:26;;;;;;;0.57;0.30;;;10.80;99.90;;;;;;5043510;28;20090;-69
2021/05/19 09:47:54;;;;;;;2.67;0.73;;;10.70;99.90;;;;;;5039588;28;20497;-68
2021/05/19 09:50:21;;;;;;;0.93;0.40;;;10.70;99.90;;;;;;5046478;28;20915;-69
2021/05/19 09:53:07;;;;;;;1.40;0.50;;;10.60;99.90;;;;;;5044085;28;20033;-69
2021/05/19 09:55:34;;;;;;;1.48;0.47;;;10.60;99.90;;;;;;5043670;28;20025;-69
2021/05/19 09:58:00;;;;;;;1.27;0.20;;;10.50;99.90;;;;;;5041202;28;20040;-69
2021/05/19 10:00:27;;;;;;;0.45;0.15;;;10.60;99.90;;;;;;5040252;28;20033;-69
2021/05/19 10:02:53;;;;;;;2.78;0.60;;;10.60;99.90;;;;;;5042932;28;20037;-70
2021/05/19 10:05:23;;;;;;;1.98;0.55;;;10.60;99.90;;;;;;5041653;28;20048;-69
2021/05/19 10:07:49;;;;;;;1.60;0.98;;;10.60;99.90;;;;;;5040603;28;20033;-68
2021/05/19 10:10:15;;;;;;;5.93;0.88;;;10.70;99.90;;;;;;5042077;28;20018;-69
2021/05/19 10:12:41;;;;;;;2.03;0.88;;;10.70;99.90;;;;;;5043449;28;20021;-69
2021/05/19 10:15:13;;;;;;;7.90;1.20;;;10.70;99.90;;;;;;5039035;28;20120;-69
2021/05/19 10:17:43;;;;;;;1.70;0.40;;;10.70;99.90;;;;;;5043844;28;20040;-69
2021/05/19 10:20:13;;;;;;;3.72;0.90;;;10.80;99.90;;;;;;5041316;28;20036;-69
2021/05/19 10:22:43;;;;;;;4.00;1.20;;;10.80;99.90;;;;;;5038724;28;20116;-73
2021/05/19 10:25:19;;;;;;;;;;;10.70;99.90;;;;;;5038967;28;20025;-72
2021/05/19 10:27:54;;;;;;;3.58;0.73;;;10.70;99.90;;;;;;5040278;28;19912;-73
2021/05/19 10:30:45;;;;;;;2.45;0.90;;;10.60;99.90;;;;;;5043426;28;20116;-72
2021/05/19 10:33:29;;;;;;;2.42;0.70;;;10.60;99.90;;;;;;5041932;28;20033;-72
2021/05/19 10:35:56;;;;;;;2.38;1.17;;;10.70;99.90;;;;;;5039525;28;20028;-72
2021/05/19 10:38:34;;;;;;;3.15;0.70;;;10.80;99.90;;;;;;5042623;28;20056;-74
2021/05/19 10:41:04;;;;;;;2.20;0.80;;;10.90;99.90;;;;;;5042369;28;20037;-72
2021/05/19 10:43:50;;;;;;;1.90;0.57;;;11.10;99.90;;;;;;5044049;28;20033;-73
2021/05/19 10:46:56;;;;;;;2.80;0.57;;;11.20;99.90;;;;;;5047268;28;20302;-73
2021/05/19 10:49:43;;;;;;;3.92;0.57;;;11.40;99.90;;;;;;5002791;28;20049;-72
2021/05/19 10:57:46;;;;;;;3.30;0.47;;;12.20;99.90;;;;;;5055224;28;20040;-74
2021/05/19 11:00:16;;;;;;;3.35;0.60;;;12.70;99.90;;;;;;5055535;28;20033;-72
2021/05/19 11:02:53;;;;;;;2.65;0.45;;;13.10;99.90;;;;;;5048596;28;20044;-73
2021/05/19 11:05:28;;;;;;;0.77;0.40;;;13.60;99.90;;;;;;5049811;28;20102;-73
2021/05/19 11:08:11;;;;;;;3.28;0.60;;;14.00;99.90;;;;;;5038780;28;20033;-72
2021/05/19 11:10:49;;;;;;;1.90;0.50;;;14.20;99.90;;;;;;5041727;28;20044;-73
2021/05/19 11:13:20;;;;;;;0.93;0.28;;;14.30;99.90;;;;;;5041649;28;20040;-72
2021/05/19 11:20:49;;;;;;;0.65;0.25;;;13.90;99.90;;;;;;5040097;28;20107;-72
2021/05/19 11:23:15;;;;;;;0.80;0.30;;;13.70;99.90;;;;;;5038629;28;20040;-71
2021/05/19 11:25:41;;;;;;;2.10;0.45;;;13.60;99.90;;;;;;5037039;28;20025;-72
2021/05/19 11:28:07;;;;;;;2.17;0.60;;;13.80;99.90;;;;;;5039239;28;20033;-72
2021/05/19 11:30:33;;;;;;;0.80;0.57;;;14.00;99.90;;;;;;5037123;28;20799;-74
2021/05/19 11:33:04;;;;;;;3.03;0.57;;;14.30;99.90;;;;;;5038154;28;20037;-72
2021/05/19 11:35:30;;;;;;;2.00;0.52;;;14.60;99.90;;;;;;5044448;28;20044;-73
2021/05/19 11:37:57;;;;;;;2.83;0.60;;;15.00;99.90;;;;;;5033921;28;20969;-73
2021/05/19 11:40:35;;;;;;;4.85;0.57;;;15.20;99.90;;;;;;5037274;28;20079;-74
2021/05/19 11:43:00;;;;;;;1.80;0.50;;;15.40;99.90;;;;;;5040618;28;20039;-73
2021/05/19 11:45:26;;;;;;;5.10;0.88;;;15.40;99.90;;;;;;5037478;28;20029;-71
2021/05/19 11:47:52;;;;;;;3.67;0.70;;;15.40;99.90;;;;;;5040698;28;20040;-72
2021/05/19 11:50:20;;;;;;;2.38;0.80;;;15.30;99.90;;;;;;5041957;28;20033;-72
2021/05/19 11:52:57;;;;;;;3.35;0.57;;;15.00;99.90;;;;;;5038505;28;20402;-74
2021/05/19 11:55:26;;;;;;;3.42;0.95;;;14.80;99.90;;;;;;5037301;28;20073;-72
2021/05/19 11:58:05;;;;;;;2.60;0.77;;;14.60;99.90;;;;;;5036268;28;20132;-72
2021/05/19 12:00:55;;;;;;;2.35;0.70;;;14.50;99.90;;;;;;5037205;28;20045;-72
2021/05/19 12:03:23;;;;;;;2.63;1.35;;;14.40;99.90;;;;;;5039625;28;20033;-72
2021/05/19 12:05:52;;;;;;;1.77;0.95;;;14.40;99.90;;;;;;5038706;28;20033;-72
2021/05/19 12:08:20;;;;;;;1.88;0.70;;;14.40;99.90;;;;;;5040883;28;20033;-72
2021/05/19 12:10:46;;;;;;;6.03;1.20;;;14.40;99.90;;;;;;5041396;28;20037;-72
2021/05/19 12:13:13;;;;;;;2.45;0.80;;;14.40;99.90;;;;;;5039740;28;20041;-72
2021/05/19 12:15:40;;;;;;;1.90;0.60;;;14.40;99.90;;;;;;5034079;28;20036;-72
2021/05/19 12:18:08;;;;;;;5.38;1.33;;;14.40;99.90;;;;;;5039312;28;20171;-73
2021/05/19 12:20:36;;;;;;;2.35;0.63;;;14.40;99.90;;;;;;5040838;28;20037;-73
2021/05/19 12:23:04;;;;;;;2.72;0.70;;;14.50;99.90;;;;;;5036166;28;20823;-74
2021/05/19 12:25:31;;;;;;;2.17;0.90;;;14.60;99.90;;;;;;5039286;28;20029;-72
2021/05/19 12:28:08;;;;;;;2.20;1.10;;;14.70;99.90;;;;;;5041771;28;20141;-73
2021/05/19 12:30:47;;;;;;;2.47;0.70;;;14.80;99.90;;;;;;5038250;28;20029;-71
2021/05/19 12:33:14;;;;;;;2.08;0.60;;;15.20;99.90;;;;;;5036307;28;20733;-74
2021/05/19 12:35:45;;;;;;;2.90;0.80;;;15.40;99.90;;;;;;5041010;28;20426;-72
2021/05/19 12:38:10;;;;;;;1.45;0.60;;;15.60;99.90;;;;;;5040480;28;20068;-72
2021/05/19 12:40:39;;;;;;;0.95;0.30;;;15.90;99.90;;;;;;5039897;28;20056;-72
2021/05/19 12:43:07;;;;;;;1.50;0.25;;;16.20;99.90;;;;;;5038767;28;20459;-72
2021/05/19 12:45:36;;;;;;;1.23;0.13;;;16.60;99.90;;;;;;5041199;28;20098;-71
2021/05/19 12:48:15;;;;;;;1.50;0.35;;;16.80;99.90;;;;;;5042020;28;20075;-75
2021/05/19 12:50:50;;;;;;;3.42;0.50;;;16.90;99.90;;;;;;5038342;28;20534;-73
2021/05/19 12:53:48;;;;;;;3.00;0.30;;;17.10;99.90;;;;;;5039094;28;20037;-74
2021/05/19 12:56:22;;;;;;;0.75;0.10;;;17.00;99.90;;;;;;5038136;28;20044;-72
2021/05/19 12:59:08;;;;;;;2.28;0.20;;;16.90;99.90;;;;;;5041898;28;20040;-71
2021/05/19 13:01:45;;;;;;;2.42;0.60;;;16.80;99.90;;;;;;5039442;28;20037;-71